sensor_id;sensor_type;location;lat;lon;timestamp;pressure;altitude;pressure_sealevel;temperature;humidity
34658;BME280;20865;43.312;27.152;2022-07-11T00:00:32;100051.41;;;26.77;43.09
34658;BME280;20865;43.312;27.152;2022-07-11T00:03:00;100051.92;;;26.76;43.20
34658;BME280;20865;43.312;27.152;2022-07-11T00:05:28;100052.78;;;26.77;43.21
34658;BME280;20865;43.312;27.152;2022-07-11T00:07:55;100056.23;;;26.79;43.15
34658;BME280;20865;43.312;27.152;2022-07-11T00:10:23;100059.83;;;26.79;43.13
34658;BME280;20865;43.312;27.152;2022-07-11T00:12:50;100058.97;;;26.79;43.16
34658;BME280;20865;43.312;27.152;2022-07-11T00:15:18;100052.33;;;26.81;43.14
34658;BME280;20865;43.312;27.152;2022-07-11T00:17:46;100057.30;;;26.82;43.06
34658;BME280;20865;43.312;27.152;2022-07-11T00:20:13;100055.55;;;26.81;43.07
34658;BME280;20865;43.312;27.152;2022-07-11T00:22:41;100051.27;;;26.78;43.10
34658;BME280;20865;43.312;27.152;2022-07-11T00:25:09;100058.80;;;26.80;43.08
34658;BME280;20865;43.312;27.152;2022-07-11T00:27:36;100061.00;;;26.77;43.12
34658;BME280;20865;43.312;27.152;2022-07-11T00:30:05;100070.24;;;26.76;43.15
34658;BME280;20865;43.312;27.152;2022-07-11T00:32:33;100062.33;;;26.73;43.15
34658;BME280;20865;43.312;27.152;2022-07-11T00:35:00;100064.42;;;26.75;43.12
34658;BME280;20865;43.312;27.152;2022-07-11T00:37:28;100075.17;;;26.72;43.15
34658;BME280;20865;43.312;27.152;2022-07-11T00:39:56;100074.63;;;26.69;43.25
34658;BME280;20865;43.312;27.152;2022-07-11T00:42:25;100077.02;;;26.68;43.24
34658;BME280;20865;43.312;27.152;2022-07-11T00:44:53;100064.83;;;26.66;43.21
34658;BME280;20865;43.312;27.152;2022-07-11T00:47:21;100062.26;;;26.65;43.07
34658;BME280;20865;43.312;27.152;2022-07-11T00:49:48;100069.24;;;26.63;43.08
34658;BME280;20865;43.312;27.152;2022-07-11T00:52:16;100065.51;;;26.64;43.08
34658;BME280;20865;43.312;27.152;2022-07-11T00:54:45;100072.11;;;26.57;42.84
34658;BME280;20865;43.312;27.152;2022-07-11T00:57:14;100071.26;;;26.57;42.69
34658;BME280;20865;43.312;27.152;2022-07-11T00:59:42;100080.63;;;26.54;42.64
34658;BME280;20865;43.312;27.152;2022-07-11T01:02:09;100082.95;;;26.49;42.66
34658;BME280;20865;43.312;27.152;2022-07-11T01:04:37;100086.13;;;26.45;42.83
34658;BME280;20865;43.312;27.152;2022-07-11T01:07:05;100080.41;;;26.38;42.88
34658;BME280;20865;43.312;27.152;2022-07-11T01:09:33;100086.91;;;26.37;43.07
34658;BME280;20865;43.312;27.152;2022-07-11T01:12:00;100088.62;;;26.38;42.89
34658;BME280;20865;43.312;27.152;2022-07-11T01:14:28;100081.38;;;26.33;42.93
34658;BME280;20865;43.312;27.152;2022-07-11T01:16:56;100081.52;;;26.31;43.13
34658;BME280;20865;43.312;27.152;2022-07-11T01:19:23;100090.03;;;26.28;43.02
34658;BME280;20865;43.312;27.152;2022-07-11T01:21:52;100085.23;;;26.26;43.17
34658;BME280;20865;43.312;27.152;2022-07-11T01:24:21;100091.52;;;26.23;43.45
34658;BME280;20865;43.312;27.152;2022-07-11T01:26:51;100090.45;;;26.20;43.59
34658;BME280;20865;43.312;27.152;2022-07-11T01:29:18;100090.45;;;26.20;43.61
34658;BME280;20865;43.312;27.152;2022-07-11T01:31:46;100094.09;;;26.24;43.39
34658;BME280;20865;43.312;27.152;2022-07-11T01:34:14;100088.63;;;26.24;43.50
34658;BME280;20865;43.312;27.152;2022-07-11T01:36:41;100100.08;;;26.24;43.58
34658;BME280;20865;43.312;27.152;2022-07-11T01:39:09;100094.39;;;26.21;43.55
34658;BME280;20865;43.312;27.152;2022-07-11T01:41:37;100097.34;;;26.24;43.24
34658;BME280;20865;43.312;27.152;2022-07-11T01:44:04;100100.73;;;26.22;43.01
34658;BME280;20865;43.312;27.152;2022-07-11T01:46:32;100102.91;;;26.18;43.14
34658;BME280;20865;43.312;27.152;2022-07-11T01:49:00;100101.14;;;26.13;43.02
34658;BME280;20865;43.312;27.152;2022-07-11T01:51:29;100107.55;;;26.08;42.82
34658;BME280;20865;43.312;27.152;2022-07-11T01:53:57;100106.87;;;26.06;42.78
34658;BME280;20865;43.312;27.152;2022-07-11T01:56:25;100100.83;;;26.02;42.83
34658;BME280;20865;43.312;27.152;2022-07-11T01:58:55;100098.34;;;25.95;43.03
34658;BME280;20865;43.312;27.152;2022-07-11T02:01:23;100102.23;;;25.93;43.16
34658;BME280;20865;43.312;27.152;2022-07-11T02:03:51;100109.15;;;25.87;43.49
34658;BME280;20865;43.312;27.152;2022-07-11T02:06:19;100109.15;;;25.87;43.79
34658;BME280;20865;43.312;27.152;2022-07-11T02:08:46;100106.80;;;25.88;43.84
34658;BME280;20865;43.312;27.152;2022-07-11T02:11:14;100109.58;;;25.92;43.75
34658;BME280;20865;43.312;27.152;2022-07-11T02:13:41;100114.70;;;25.91;43.80
34658;BME280;20865;43.312;27.152;2022-07-11T02:16:09;100115.98;;;25.87;43.88
34658;BME280;20865;43.312;27.152;2022-07-11T02:18:36;100124.06;;;25.88;43.90
34658;BME280;20865;43.312;27.152;2022-07-11T02:21:04;100122.23;;;25.93;43.70
34658;BME280;20865;43.312;27.152;2022-07-11T02:23:32;100117.79;;;25.92;43.64
34658;BME280;20865;43.312;27.152;2022-07-11T02:26:00;100123.91;;;25.90;43.49
34658;BME280;20865;43.312;27.152;2022-07-11T02:28:27;100122.53;;;25.90;43.57
34658;BME280;20865;43.312;27.152;2022-07-11T02:30:55;100128.86;;;25.90;43.52
34658;BME280;20865;43.312;27.152;2022-07-11T02:33:23;100130.23;;;25.90;43.63
34658;BME280;20865;43.312;27.152;2022-07-11T02:35:50;100132.97;;;25.90;43.63
34658;BME280;20865;43.312;27.152;2022-07-11T02:38:18;100137.02;;;25.86;43.68
34658;BME280;20865;43.312;27.152;2022-07-11T02:40:45;100146.03;;;25.83;43.60
34658;BME280;20865;43.312;27.152;2022-07-11T02:43:14;100147.21;;;25.80;43.73
34658;BME280;20865;43.312;27.152;2022-07-11T02:45:42;100141.13;;;25.86;43.53
34658;BME280;20865;43.312;27.152;2022-07-11T02:48:10;100140.70;;;25.91;43.43
34658;BME280;20865;43.312;27.152;2022-07-11T02:50:38;100136.22;;;25.90;43.39
34658;BME280;20865;43.312;27.152;2022-07-11T02:53:05;100132.41;;;25.87;43.39
34658;BME280;20865;43.312;27.152;2022-07-11T02:55:33;100141.28;;;25.85;43.49
34658;BME280;20865;43.312;27.152;2022-07-11T02:58:00;100153.09;;;25.85;43.55
34658;BME280;20865;43.312;27.152;2022-07-11T03:00:28;100157.19;;;25.85;43.61
34658;BME280;20865;43.312;27.152;2022-07-11T03:02:56;100157.41;;;25.88;43.58
34658;BME280;20865;43.312;27.152;2022-07-11T03:05:23;100164.25;;;25.88;43.60
34658;BME280;20865;43.312;27.152;2022-07-11T03:07:51;100167.11;;;25.86;43.57
34658;BME280;20865;43.312;27.152;2022-07-11T03:10:19;100170.23;;;25.87;43.62
34658;BME280;20865;43.312;27.152;2022-07-11T03:12:49;100176.27;;;25.91;43.48
34658;BME280;20865;43.312;27.152;2022-07-11T03:15:16;100177.93;;;25.88;43.37
34658;BME280;20865;43.312;27.152;2022-07-11T03:17:44;100176.75;;;25.90;43.14
34658;BME280;20865;43.312;27.152;2022-07-11T03:20:12;100178.28;;;25.89;42.95
34658;BME280;20865;43.312;27.152;2022-07-11T03:22:39;100176.18;;;25.87;42.81
34658;BME280;20865;43.312;27.152;2022-07-11T03:25:08;100190.53;;;25.85;42.87
34658;BME280;20865;43.312;27.152;2022-07-11T03:27:35;100186.88;;;25.80;42.84
34658;BME280;20865;43.312;27.152;2022-07-11T03:30:04;100190.67;;;25.74;43.00
34658;BME280;20865;43.312;27.152;2022-07-11T03:32:31;100196.94;;;25.70;43.26
34658;BME280;20865;43.312;27.152;2022-07-11T03:34:59;100196.94;;;25.70;43.33
34658;BME280;20865;43.312;27.152;2022-07-11T03:37:45;100197.22;;;25.67;43.52
34658;BME280;20865;43.312;27.152;2022-07-11T03:40:12;100203.11;;;25.62;43.72
34658;BME280;20865;43.312;27.152;2022-07-11T03:42:40;100210.74;;;25.59;43.83
34658;BME280;20865;43.312;27.152;2022-07-11T03:45:08;100217.09;;;25.59;43.92
34658;BME280;20865;43.312;27.152;2022-07-11T03:47:36;100212.68;;;25.62;43.90
34658;BME280;20865;43.312;27.152;2022-07-11T03:50:05;100214.37;;;25.59;44.09
34658;BME280;20865;43.312;27.152;2022-07-11T03:52:33;100211.47;;;25.61;44.25
34658;BME280;20865;43.312;27.152;2022-07-11T03:55:00;100209.75;;;25.60;44.42
34658;BME280;20865;43.312;27.152;2022-07-11T03:57:28;100219.91;;;25.63;44.54
34658;BME280;20865;43.312;27.152;2022-07-11T03:59:56;100228.87;;;25.70;44.54
34658;BME280;20865;43.312;27.152;2022-07-11T04:02:23;100230.33;;;25.74;44.58
34658;BME280;20865;43.312;27.152;2022-07-11T04:04:51;100228.33;;;25.85;44.59
34658;BME280;20865;43.312;27.152;2022-07-11T04:07:19;100225.52;;;25.91;44.69
34658;BME280;20865;43.312;27.152;2022-07-11T04:09:46;100230.60;;;26.00;44.71
34658;BME280;20865;43.312;27.152;2022-07-11T04:12:14;100223.25;;;26.00;44.71
34658;BME280;20865;43.312;27.152;2022-07-11T04:14:43;100224.62;;;26.00;44.73
34658;BME280;20865;43.312;27.152;2022-07-11T04:17:11;100231.09;;;26.09;44.56
34658;BME280;20865;43.312;27.152;2022-07-11T04:19:40;100233.59;;;26.16;44.54
34658;BME280;20865;43.312;27.152;2022-07-11T04:22:09;100239.53;;;26.25;44.47
34658;BME280;20865;43.312;27.152;2022-07-11T04:24:37;100235.11;;;26.38;44.24
34658;BME280;20865;43.312;27.152;2022-07-11T04:27:05;100226.43;;;26.43;44.19
34658;BME280;20865;43.312;27.152;2022-07-11T04:29:33;100231.73;;;26.40;44.24
34658;BME280;20865;43.312;27.152;2022-07-11T04:32:00;100228.02;;;26.45;44.13
34658;BME280;20865;43.312;27.152;2022-07-11T04:34:28;100232.59;;;26.50;44.14
34658;BME280;20865;43.312;27.152;2022-07-11T04:36:55;100229.52;;;26.53;44.16
34658;BME280;20865;43.312;27.152;2022-07-11T04:39:23;100236.55;;;26.66;43.83
34658;BME280;20865;43.312;27.152;2022-07-11T04:41:51;100241.51;;;26.66;43.93
34658;BME280;20865;43.312;27.152;2022-07-11T04:44:19;100233.72;;;26.71;43.78
34658;BME280;20865;43.312;27.152;2022-07-11T04:46:47;100250.41;;;26.78;43.85
34658;BME280;20865;43.312;27.152;2022-07-11T04:49:15;100244.86;;;26.74;43.90
34658;BME280;20865;43.312;27.152;2022-07-11T04:51:42;100254.57;;;26.82;43.88
34658;BME280;20865;43.312;27.152;2022-07-11T04:54:10;100252.22;;;26.87;43.81
34658;BME280;20865;43.312;27.152;2022-07-11T04:56:38;100246.70;;;26.97;43.71
34658;BME280;20865;43.312;27.152;2022-07-11T04:59:06;100254.35;;;27.07;43.62
34658;BME280;20865;43.312;27.152;2022-07-11T05:01:34;100260.12;;;27.14;43.06
34658;BME280;20865;43.312;27.152;2022-07-11T05:04:03;100259.61;;;27.14;43.32
34658;BME280;20865;43.312;27.152;2022-07-11T05:06:31;100256.60;;;27.21;42.53
34658;BME280;20865;43.312;27.152;2022-07-11T05:08:59;100256.03;;;27.31;42.17
34658;BME280;20865;43.312;27.152;2022-07-11T05:11:27;100252.54;;;27.43;41.95
34658;BME280;20865;43.312;27.152;2022-07-11T05:13:54;100252.60;;;27.65;40.95
34658;BME280;20865;43.312;27.152;2022-07-11T05:16:22;100252.60;;;27.65;40.95
34658;BME280;20865;43.312;27.152;2022-07-11T05:18:50;100249.38;;;27.88;40.25
34658;BME280;20865;43.312;27.152;2022-07-11T05:21:17;100249.38;;;27.88;40.25
34658;BME280;20865;43.312;27.152;2022-07-11T05:23:50;100254.18;;;28.08;39.84
34658;BME280;20865;43.312;27.152;2022-07-11T05:26:18;100254.18;;;28.08;39.84
34658;BME280;20865;43.312;27.152;2022-07-11T05:28:46;100253.27;;;28.25;39.75
34658;BME280;20865;43.312;27.152;2022-07-11T05:31:14;100250.48;;;28.39;39.08
34658;BME280;20865;43.312;27.152;2022-07-11T05:33:42;100252.23;;;28.48;39.13
34658;BME280;20865;43.312;27.152;2022-07-11T05:36:09;100253.69;;;28.60;39.16
34658;BME280;20865;43.312;27.152;2022-07-11T05:38:37;100253.93;;;28.79;38.48
34658;BME280;20865;43.312;27.152;2022-07-11T05:41:05;100256.53;;;28.81;37.86
34658;BME280;20865;43.312;27.152;2022-07-11T05:43:33;100260.17;;;28.93;37.97
34658;BME280;20865;43.312;27.152;2022-07-11T05:46:05;100262.45;;;28.98;37.67
34658;BME280;20865;43.312;27.152;2022-07-11T05:48:33;100259.24;;;29.15;37.88
34658;BME280;20865;43.312;27.152;2022-07-11T05:51:00;100273.37;;;29.16;37.67
34658;BME280;20865;43.312;27.152;2022-07-11T05:53:28;100276.66;;;29.28;37.48
34658;BME280;20865;43.312;27.152;2022-07-11T05:55:55;100268.41;;;29.32;37.17
34658;BME280;20865;43.312;27.152;2022-07-11T05:58:23;100267.59;;;29.48;37.06
34658;BME280;20865;43.312;27.152;2022-07-11T06:00:51;100272.77;;;29.55;36.79
34658;BME280;20865;43.312;27.152;2022-07-11T06:03:19;100269.71;;;29.66;36.89
34658;BME280;20865;43.312;27.152;2022-07-11T06:05:47;100271.78;;;29.76;36.26
34658;BME280;20865;43.312;27.152;2022-07-11T06:08:16;100274.55;;;29.93;35.87
34658;BME280;20865;43.312;27.152;2022-07-11T06:11:01;100275.58;;;30.00;35.61
34658;BME280;20865;43.312;27.152;2022-07-11T06:13:29;100275.91;;;30.09;35.72
34658;BME280;20865;43.312;27.152;2022-07-11T06:15:57;100273.33;;;30.11;35.85
34658;BME280;20865;43.312;27.152;2022-07-11T06:18:24;100272.47;;;30.11;35.63
34658;BME280;20865;43.312;27.152;2022-07-11T06:20:53;100270.06;;;30.08;35.64
34658;BME280;20865;43.312;27.152;2022-07-11T06:23:21;100273.66;;;30.12;36.11
34658;BME280;20865;43.312;27.152;2022-07-11T06:25:49;100281.77;;;30.10;36.56
34658;BME280;20865;43.312;27.152;2022-07-11T06:28:16;100281.08;;;30.08;36.59
34658;BME280;20865;43.312;27.152;2022-07-11T06:30:44;100281.44;;;29.93;35.98
34658;BME280;20865;43.312;27.152;2022-07-11T06:33:11;100290.55;;;29.93;36.27
34658;BME280;20865;43.312;27.152;2022-07-11T06:35:39;100283.84;;;30.00;36.45
34658;BME280;20865;43.312;27.152;2022-07-11T06:38:07;100294.16;;;29.98;36.17
34658;BME280;20865;43.312;27.152;2022-07-11T06:40:34;100291.75;;;29.90;36.73
34658;BME280;20865;43.312;27.152;2022-07-11T06:43:02;100289.52;;;30.06;36.61
34658;BME280;20865;43.312;27.152;2022-07-11T06:45:31;100296.27;;;30.20;36.50
34658;BME280;20865;43.312;27.152;2022-07-11T06:47:59;100292.10;;;30.32;35.99
34658;BME280;20865;43.312;27.152;2022-07-11T06:50:27;100291.87;;;30.54;35.99
34658;BME280;20865;43.312;27.152;2022-07-11T06:52:55;100292.58;;;30.56;35.65
34658;BME280;20865;43.312;27.152;2022-07-11T06:55:23;100297.22;;;30.76;35.87
34658;BME280;20865;43.312;27.152;2022-07-11T06:57:51;100301.03;;;30.47;35.45
34658;BME280;20865;43.312;27.152;2022-07-11T07:00:18;100307.68;;;30.85;35.27
34658;BME280;20865;43.312;27.152;2022-07-11T07:02:46;100302.51;;;30.90;35.43
34658;BME280;20865;43.312;27.152;2022-07-11T07:05:14;100303.06;;;30.69;35.57
34658;BME280;20865;43.312;27.152;2022-07-11T07:07:41;100305.28;;;30.74;35.50
34658;BME280;20865;43.312;27.152;2022-07-11T07:10:09;100308.55;;;30.81;34.78
34658;BME280;20865;43.312;27.152;2022-07-11T07:12:40;100305.66;;;30.79;34.61
34658;BME280;20865;43.312;27.152;2022-07-11T07:15:08;100307.16;;;30.85;34.42
34658;BME280;20865;43.312;27.152;2022-07-11T07:17:36;100299.09;;;30.68;34.41
34658;BME280;20865;43.312;27.152;2022-07-11T07:20:04;100293.92;;;30.73;35.10
34658;BME280;20865;43.312;27.152;2022-07-11T07:22:34;100291.99;;;30.85;35.35
34658;BME280;20865;43.312;27.152;2022-07-11T07:25:02;100303.75;;;30.79;34.74
34658;BME280;20865;43.312;27.152;2022-07-11T07:27:30;100298.24;;;30.79;34.45
34658;BME280;20865;43.312;27.152;2022-07-11T07:29:57;100298.23;;;30.67;34.12
34658;BME280;20865;43.312;27.152;2022-07-11T07:32:25;100299.78;;;31.84;32.93
34658;BME280;20865;43.312;27.152;2022-07-11T07:34:53;100300.47;;;32.09;32.90
34658;BME280;20865;43.312;27.152;2022-07-11T07:37:20;100304.98;;;31.78;31.90
34658;BME280;20865;43.312;27.152;2022-07-11T07:39:48;100296.73;;;31.97;32.21
34658;BME280;20865;43.312;27.152;2022-07-11T07:42:15;100299.57;;;32.12;32.51
34658;BME280;20865;43.312;27.152;2022-07-11T07:44:43;100307.94;;;32.23;32.27
34658;BME280;20865;43.312;27.152;2022-07-11T07:47:11;100310.33;;;32.26;32.96
34658;BME280;20865;43.312;27.152;2022-07-11T07:49:38;100311.23;;;32.18;31.04
34658;BME280;20865;43.312;27.152;2022-07-11T07:52:06;100302.22;;;32.06;31.86
34658;BME280;20865;43.312;27.152;2022-07-11T07:54:34;100310.38;;;31.99;32.33
34658;BME280;20865;43.312;27.152;2022-07-11T07:57:02;100312.00;;;32.12;32.25
34658;BME280;20865;43.312;27.152;2022-07-11T07:59:29;100314.11;;;32.25;31.84
34658;BME280;20865;43.312;27.152;2022-07-11T08:01:57;100312.77;;;32.44;31.98
34658;BME280;20865;43.312;27.152;2022-07-11T08:04:25;100308.70;;;32.32;30.64
34658;BME280;20865;43.312;27.152;2022-07-11T08:06:52;100304.34;;;32.56;29.87
34658;BME280;20865;43.312;27.152;2022-07-11T08:09:21;100308.84;;;32.57;30.15
34658;BME280;20865;43.312;27.152;2022-07-11T08:11:48;100306.23;;;32.75;30.92
34658;BME280;20865;43.312;27.152;2022-07-11T08:14:16;100303.52;;;32.85;30.36
34658;BME280;20865;43.312;27.152;2022-07-11T08:16:44;100298.11;;;32.58;29.71
34658;BME280;20865;43.312;27.152;2022-07-11T08:19:12;100295.34;;;32.88;29.87
34658;BME280;20865;43.312;27.152;2022-07-11T08:21:40;100300.98;;;32.80;30.43
34658;BME280;20865;43.312;27.152;2022-07-11T08:24:08;100293.53;;;32.99;29.74
34658;BME280;20865;43.312;27.152;2022-07-11T08:26:35;100304.31;;;32.90;29.89
34658;BME280;20865;43.312;27.152;2022-07-11T08:29:05;100299.11;;;32.91;30.46
34658;BME280;20865;43.312;27.152;2022-07-11T08:31:33;100294.77;;;32.63;30.05
34658;BME280;20865;43.312;27.152;2022-07-11T08:34:02;100301.56;;;32.60;30.53
34658;BME280;20865;43.312;27.152;2022-07-11T08:36:30;100291.11;;;32.29;31.15
34658;BME280;20865;43.312;27.152;2022-07-11T08:38:59;100299.19;;;32.53;31.31
34658;BME280;20865;43.312;27.152;2022-07-11T08:41:38;100292.31;;;32.68;31.59
34658;BME280;20865;43.312;27.152;2022-07-11T08:44:07;100301.98;;;32.68;30.61
34658;BME280;20865;43.312;27.152;2022-07-11T08:46:37;100301.41;;;32.72;30.87
34658;BME280;20865;43.312;27.152;2022-07-11T08:49:11;100305.28;;;32.67;30.56
34658;BME280;20865;43.312;27.152;2022-07-11T08:51:41;100299.23;;;32.49;30.96
34658;BME280;20865;43.312;27.152;2022-07-11T08:54:11;100302.58;;;32.59;30.37
34658;BME280;20865;43.312;27.152;2022-07-11T08:56:39;100300.30;;;32.63;30.65
34658;BME280;20865;43.312;27.152;2022-07-11T08:59:08;100295.13;;;32.64;30.75
34658;BME280;20865;43.312;27.152;2022-07-11T09:01:36;100308.75;;;32.65;30.91
34658;BME280;20865;43.312;27.152;2022-07-11T09:04:06;100311.30;;;32.52;30.99
34658;BME280;20865;43.312;27.152;2022-07-11T09:06:35;100300.17;;;32.75;30.43
34658;BME280;20865;43.312;27.152;2022-07-11T09:09:03;100305.34;;;32.59;30.13
34658;BME280;20865;43.312;27.152;2022-07-11T09:11:48;100305.98;;;32.65;30.91
34658;BME280;20865;43.312;27.152;2022-07-11T09:14:28;100298.74;;;32.64;30.49
34658;BME280;20865;43.312;27.152;2022-07-11T09:17:02;100299.34;;;32.70;30.59
34658;BME280;20865;43.312;27.152;2022-07-11T09:19:31;100299.49;;;32.73;30.89
34658;BME280;20865;43.312;27.152;2022-07-11T09:22:02;100291.88;;;32.60;30.73
34658;BME280;20865;43.312;27.152;2022-07-11T09:25:01;100300.45;;;32.65;31.96
34658;BME280;20865;43.312;27.152;2022-07-11T09:28:02;100304.52;;;32.88;31.31
34658;BME280;20865;43.312;27.152;2022-07-11T09:30:38;100300.39;;;33.03;30.70
34658;BME280;20865;43.312;27.152;2022-07-11T09:33:06;100295.64;;;32.93;30.35
34658;BME280;20865;43.312;27.152;2022-07-11T09:35:36;100297.09;;;33.04;30.66
34658;BME280;20865;43.312;27.152;2022-07-11T09:38:07;100289.05;;;33.09;29.67
34658;BME280;20865;43.312;27.152;2022-07-11T09:40:36;100290.78;;;33.35;30.06
34658;BME280;20865;43.312;27.152;2022-07-11T09:43:04;100292.76;;;33.56;29.48
34658;BME280;20865;43.312;27.152;2022-07-11T09:45:33;100289.22;;;33.73;29.14
34658;BME280;20865;43.312;27.152;2022-07-11T09:48:13;100290.28;;;33.83;28.83
34658;BME280;20865;43.312;27.152;2022-07-11T09:50:39;100291.45;;;33.95;28.33
34658;BME280;20865;43.312;27.152;2022-07-11T09:53:13;100293.82;;;33.98;28.01
34658;BME280;20865;43.312;27.152;2022-07-11T09:55:45;100295.53;;;33.88;28.13
34658;BME280;20865;43.312;27.152;2022-07-11T09:58:15;100294.02;;;33.75;28.08
34658;BME280;20865;43.312;27.152;2022-07-11T10:00:45;100294.20;;;33.52;27.67
34658;BME280;20865;43.312;27.152;2022-07-11T10:03:13;100298.36;;;33.52;28.20
34658;BME280;20865;43.312;27.152;2022-07-11T10:05:41;100294.09;;;33.46;28.01
34658;BME280;20865;43.312;27.152;2022-07-11T10:08:08;100296.31;;;33.35;27.32
34658;BME280;20865;43.312;27.152;2022-07-11T10:10:37;100293.79;;;33.30;28.01
34658;BME280;20865;43.312;27.152;2022-07-11T10:13:04;100296.09;;;33.26;29.33
34658;BME280;20865;43.312;27.152;2022-07-11T10:15:34;100302.40;;;33.46;29.48
34658;BME280;20865;43.312;27.152;2022-07-11T10:23:39;100295.36;;;33.69;29.05
34658;BME280;20865;43.312;27.152;2022-07-11T10:26:24;100300.36;;;33.80;28.25
34658;BME280;20865;43.312;27.152;2022-07-11T10:29:01;100299.62;;;33.82;27.29
34658;BME280;20865;43.312;27.152;2022-07-11T10:31:26;100294.59;;;34.07;27.42
34658;BME280;20865;43.312;27.152;2022-07-11T10:34:05;100290.18;;;34.30;28.00
34658;BME280;20865;43.312;27.152;2022-07-11T10:36:40;100300.77;;;34.58;27.48
34658;BME280;20865;43.312;27.152;2022-07-11T10:39:17;100295.97;;;34.56;26.03
34658;BME280;20865;43.312;27.152;2022-07-11T10:41:48;100292.02;;;34.33;26.05
34658;BME280;20865;43.312;27.152;2022-07-11T10:44:15;100290.14;;;34.12;26.21
34658;BME280;20865;43.312;27.152;2022-07-11T10:46:43;100292.00;;;34.05;26.15
34658;BME280;20865;43.312;27.152;2022-07-11T10:52:09;100287.38;;;34.12;26.33
34658;BME280;20865;43.312;27.152;2022-07-11T10:54:58;100290.00;;;33.78;25.24
34658;BME280;20865;43.312;27.152;2022-07-11T11:00:12;100295.61;;;33.37;26.18
34658;BME280;20865;43.312;27.152;2022-07-11T11:05:45;100298.15;;;33.28;26.16
34658;BME280;20865;43.312;27.152;2022-07-11T11:11:05;100294.67;;;33.15;25.98
34658;BME280;20865;43.312;27.152;2022-07-11T11:13:34;100282.62;;;33.38;25.91
34658;BME280;20865;43.312;27.152;2022-07-11T11:16:25;100276.82;;;33.58;24.96
34658;BME280;20865;43.312;27.152;2022-07-11T11:18:33;100272.84;;;33.57;25.09
34658;BME280;20865;43.312;27.152;2022-07-11T11:23:41;100283.00;;;33.82;24.90
34658;BME280;20865;43.312;27.152;2022-07-11T11:26:19;100289.13;;;33.99;25.50
34658;BME280;20865;43.312;27.152;2022-07-11T11:28:58;100284.98;;;34.20;25.18
34658;BME280;20865;43.312;27.152;2022-07-11T11:31:30;100282.14;;;34.35;24.81
34658;BME280;20865;43.312;27.152;2022-07-11T11:33:59;100281.17;;;34.49;24.83
34658;BME280;20865;43.312;27.152;2022-07-11T11:36:28;100287.84;;;34.44;24.19
34658;BME280;20865;43.312;27.152;2022-07-11T11:38:56;100286.31;;;34.63;24.13
34658;BME280;20865;43.312;27.152;2022-07-11T11:41:31;100289.59;;;34.80;23.83
34658;BME280;20865;43.312;27.152;2022-07-11T11:44:00;100277.91;;;34.84;23.65
34658;BME280;20865;43.312;27.152;2022-07-11T11:46:31;100279.06;;;34.86;23.35
34658;BME280;20865;43.312;27.152;2022-07-11T11:49:02;100276.30;;;34.86;23.36
34658;BME280;20865;43.312;27.152;2022-07-11T11:51:32;100278.80;;;34.74;23.02
34658;BME280;20865;43.312;27.152;2022-07-11T11:54:02;100273.08;;;34.82;23.40
34658;BME280;20865;43.312;27.152;2022-07-11T11:56:34;100277.53;;;34.94;23.82
34658;BME280;20865;43.312;27.152;2022-07-11T11:59:07;100279.55;;;34.96;23.32
34658;BME280;20865;43.312;27.152;2022-07-11T12:01:38;100271.13;;;35.00;23.20
34658;BME280;20865;43.312;27.152;2022-07-11T12:04:08;100277.37;;;35.02;24.07
34658;BME280;20865;43.312;27.152;2022-07-11T12:06:42;100278.09;;;34.83;23.46
34658;BME280;20865;43.312;27.152;2022-07-11T12:09:14;100281.62;;;34.64;23.61
34658;BME280;20865;43.312;27.152;2022-07-11T12:11:44;100282.11;;;34.46;23.86
34658;BME280;20865;43.312;27.152;2022-07-11T12:14:13;100276.29;;;34.12;23.89
34658;BME280;20865;43.312;27.152;2022-07-11T12:16:43;100276.44;;;34.04;24.06
34658;BME280;20865;43.312;27.152;2022-07-11T12:19:20;100278.27;;;33.97;23.87
34658;BME280;20865;43.312;27.152;2022-07-11T12:21:54;100279.66;;;33.97;23.87
34658;BME280;20865;43.312;27.152;2022-07-11T12:24:23;100288.75;;;33.91;23.57
34658;BME280;20865;43.312;27.152;2022-07-11T12:26:52;100287.12;;;33.86;23.89
34658;BME280;20865;43.312;27.152;2022-07-11T12:29:23;100285.20;;;33.76;23.93
34658;BME280;20865;43.312;27.152;2022-07-11T12:31:58;100279.52;;;33.84;24.32
34658;BME280;20865;43.312;27.152;2022-07-11T12:37:07;100275.50;;;33.97;24.90
34658;BME280;20865;43.312;27.152;2022-07-11T12:39:38;100283.05;;;34.03;23.85
34658;BME280;20865;43.312;27.152;2022-07-11T12:42:30;100275.83;;;34.09;22.89
34658;BME280;20865;43.312;27.152;2022-07-11T12:45:09;100273.38;;;34.10;23.32
34658;BME280;20865;43.312;27.152;2022-07-11T12:47:47;100270.33;;;34.26;22.76
34658;BME280;20865;43.312;27.152;2022-07-11T12:50:20;100274.64;;;34.18;22.68
34658;BME280;20865;43.312;27.152;2022-07-11T12:52:50;100278.03;;;34.31;22.60
34658;BME280;20865;43.312;27.152;2022-07-11T12:55:25;100272.53;;;34.37;22.20
34658;BME280;20865;43.312;27.152;2022-07-11T13:00:34;100265.30;;;34.65;22.16
34658;BME280;20865;43.312;27.152;2022-07-11T13:03:05;100272.19;;;34.47;23.01
34658;BME280;20865;43.312;27.152;2022-07-11T13:05:49;100263.02;;;34.47;22.82
34658;BME280;20865;43.312;27.152;2022-07-11T13:08:29;100258.81;;;34.51;21.31
34658;BME280;20865;43.312;27.152;2022-07-11T13:11:14;100264.35;;;34.51;21.60
34658;BME280;20865;43.312;27.152;2022-07-11T13:13:43;100262.35;;;34.45;21.98
34658;BME280;20865;43.312;27.152;2022-07-11T13:16:13;100269.45;;;34.36;22.07